Detall de PIREP

Printer-friendly versionPDF version

[2015/08/25 08:27:00]
Flight IATA:CT3217
Pilot Number:042
Company ICAO:CAT
Aircraft Type:A320/E
PAX:95
Departing Airport: EIDW
Destination Airport: LEPA
Alternate Airport:LEBL
Online: VATSIM
Route:PESIT DCT SLANY UL9 STU UN26 KORER UM616 TUPAR UM184 CNA UN863 AGN UN727 ROCAN UN13 LORES
Flight Level:F340
No Slew and time accel
No pause
Crash detect
Detect pilot in Cockpit between each 30 and 45 minutes
08:27 Zero fuel Weight: 71974 Lbs, Fuel Weight: 41882 Lbs
08:27 VATSIM:EIDW 250700Z 12006KT 9999 FEW022 BKN250 10/08 Q1004 NOSIG
08:27 VATSIM:LEPA 250700Z 07006KT 040V100 9999 FEW030 25/19 Q1019 NOSIG
08:31 Parking Brakes off
08:43 Take-off
08:43 Take off Weight: 149683 Lbs
08:43 Wind: 120º @ 006 Knots Heading: 274º
08:43 POS N53º 25´ 19´´ W006º 16´ 51´´
08:43 Flaps:3 at 137 Knots
08:43 Gear Up: 135 Knots
08:44 Flaps:2 at 156 Knots
08:44 Flaps:0 at 199 Knots
08:58 Wind:251º@057 Knots Heading: 165º Ground Speed: 455 Knots Altitude 31217 ft
09:00 TOC
09:00 Fuel Weight: 37828 Lb
09:13 Wind:262º@074 Knots Heading: 156º Ground Speed: 484 Knots Altitude 33805 ft
09:28 Wind:262º@073 Knots Heading: 175º Ground Speed: 463 Knots Altitude 33858 ft
09:43 Wind:265º@073 Knots Heading: 137º Ground Speed: 511 Knots Altitude 34035 ft
09:58 Wind:265º@060 Knots Heading: 160º Ground Speed: 483 Knots Altitude 34143 ft
10:13 Wind:266º@044 Knots Heading: 126º Ground Speed: 499 Knots Altitude 34199 ft
10:28 Wind:269º@042 Knots Heading: 170º Ground Speed: 472 Knots Altitude 34192 ft
10:35 TOD
10:35 Fuel Weight: 29343 Lb
10:43 Wind:262º@026 Knots Heading: 154º Ground Speed: 410 Knots Altitude 15390 ft
10:48 Flaps:1 at 201 Knots
10:52 Gear Down: 188 Knots
10:53 Flaps:3 at 189 Knots
10:53 Flaps:4 at 171 Knots
10:53 Flaps:5 at 163 Knots
10:55 TouchDown:Rate -226 ft/min Speed: 128 Knots
10:55 VATSIM:LEPA 250930Z 06002KT 9999 FEW028 29/18 Q1019 NOSIG
10:55 Land
10:55 Wind:061º@002 Knots
10:55 Heading: 238º
10:55 Flight Duration: 02:12
10:55 Landing Weight: 137105 Lbs
10:55 POS N39º 32´ 56´´ E002º 44´ 52´´
11:00 Parking brakes on
11:00 Block to Block Duration: 02:29
11:00 Final Fuel: 28373 Lbls
11:00 Spent Fuel: 13509 Lbls
11:00 Flight Length: 977 NM
11:00 TOD Land Length: 107 NM

Exportar CSV

Powered by Drupal - Modified by Danger4k